Aviation Digital Data Service (ADDS)

Output produced by TAFs form (2220 UTC 02 December 2016)
found at http://aviationweather.gov/adds/tafs/
 
KGJT 021737Z 0218/0318 VRB03KT P6SM FEW080 OVC100 
     FM022000 34005KT P6SM FEW080 OVC100 
     FM030900 VRB03KT P6SM SCT080